Main page
METAR-TAF:

METAR-TAF

Airports :

Oil platform

Ekofisk, Norway

latitude: 56-33N, longitude: 003-15E, elevation: 3 m

Current weather observation

The report was made 18 minutes ago, at 08:50 UTC
Wind 14 kt from the South/Southwest
Temperature 15°C
Humidity 72%
Pressure 1024 hPa
Visibility 10 km or more
Few clouds at a height of 2000 ft

METAR: ENLE 210850Z 21014KT 9999 FEW020 15/10 Q1024 W16/S4

Time: 11:08 (09:08 UTC)

Forecast

The report was made 1 hour and 8 minutes ago, at 08:00 UTC
Forecast valid from 21 at 09 UTC to 21 at 18 UTC
Wind 18 kt from the South/Southwest
Visibility 10 km or more
Few clouds at a height of 2000 ft, Towering cumulus.
Scattered clouds at a height of 3000 ft

TAF: ENLE 210800Z 2109/2118 20018KT 9999 FEW020TCU SCT030

Weather observations and forecasts of more than 4000 airports (METAR and TAF reports).

The available stations are represented by yellow and red dots on the map.

Hover mouse over dot to see the name of the station.

Then click to see weather observations and forecasts.

To change the map : click on the green buttons with a black cross to zoom in, on the green button with a dash to zoom out, or on the green arrows for adjacent maps.


METAR-TAF: